Terminal Aerodrome Forecast
Issued by NWS Topeka, KS

Home | Current Version | Previous Version | Text Only | Print | Product List | Glossary On
Versions: 1 2 3 4 5 6 7 8 9 10 11 12
000
FTUS43 KTOP 031736
TAFTOP
TAF
KTOP 031736Z 0318/0418 25006KT P6SM FEW060 SCT150
     FM032300 13005KT P6SM VCTS SCT050CB
     FM040500 16006KT P6SM SCT060 BKN150=

USA.gov is the U.S. government's official web portal to all federal, state and local government web resources and services.